Time;durP1;ratioP1;P1;durP2;ratioP2;P2;SDS_P1;SDS_P2;PMS_P1;PMS_P2;Temp;Humidity;BMP_temperature;BMP_pressure;BME280_temperature;BME280_humidity;BME280_pressure;Samples;Min_cycle;Max_cycle;Signal;HPM_P1;HPM_P2
2022/07/13 00:00:59;;;;;;;0.00;0.00;;;;;;;19.21;70.46;100996.31;5074088;28;20183;-73
2022/07/13 00:03:24;;;;;;;1.43;1.43;;;;;;;19.29;70.62;100994.56;5074028;28;20262;-73
2022/07/13 00:05:49;;;;;;;0.00;0.00;;;;;;;19.21;72.73;100990.78;5074078;28;20175;-73
2022/07/13 00:08:15;;;;;;;0.00;0.00;;;;;;;19.09;73.57;101007.47;5073379;28;20202;-74
2022/07/13 00:10:40;;;;;;;0.00;0.00;;;;;;;18.86;74.38;101001.75;5073966;28;20171;-74
2022/07/13 00:13:05;;;;;;;0.00;0.00;;;;;;;18.51;74.53;101007.03;5072603;28;20201;-73
2022/07/13 00:15:31;;;;;;;0.20;0.20;;;;;;;18.26;76.34;101005.50;5073795;28;20595;-73
2022/07/13 00:17:56;;;;;;;0.00;0.00;;;;;;;18.18;77.21;101003.66;5073442;28;20378;-73
2022/07/13 00:20:22;;;;;;;0.00;0.00;;;;;;;18.10;78.77;101006.22;5073697;28;20674;-73
2022/07/13 00:22:47;;;;;;;0.37;0.37;;;;;;;18.03;80.02;101000.47;5073613;28;20171;-73
2022/07/13 00:25:12;;;;;;;0.00;0.00;;;;;;;17.93;80.98;101005.66;5073738;28;20173;-73
2022/07/13 00:27:38;;;;;;;0.00;0.00;;;;;;;17.90;81.24;100995.31;5073488;28;20198;-74
2022/07/13 00:30:04;;;;;;;0.00;0.00;;;;;;;17.91;81.72;100988.63;5073558;28;20180;-74
2022/07/13 00:32:29;;;;;;;0.00;0.00;;;;;;;17.99;81.69;100988.50;5073650;28;20159;-73
2022/07/13 00:34:54;;;;;;;0.00;0.00;;;;;;;17.89;81.76;100982.63;5073475;28;20171;-73
2022/07/13 00:37:20;;;;;;;0.00;0.00;;;;;;;17.75;82.04;100967.22;5073654;28;20178;-73
2022/07/13 00:39:45;;;;;;;0.00;0.00;;;;;;;17.62;82.53;100965.56;5071955;28;20470;-73
2022/07/13 00:42:10;;;;;;;0.00;0.00;;;;;;;17.48;83.25;100960.41;5073382;28;20273;-73
2022/07/13 00:44:35;;;;;;;0.00;0.00;;;;;;;17.31;84.83;100966.16;5073422;28;20221;-74
2022/07/13 00:47:01;;;;;;;0.00;0.00;;;;;;;17.30;85.38;100963.72;5073160;28;20714;-73
2022/07/13 00:49:26;;;;;;;0.00;0.00;;;;;;;17.46;85.52;100964.66;5072785;28;20178;-75
2022/07/13 00:51:52;;;;;;;0.00;0.00;;;;;;;17.44;85.35;100966.97;5073740;28;20162;-73
2022/07/13 00:54:28;;;;;;;0.00;0.00;;;;;;;17.71;85.22;100973.78;5073101;28;20225;-73
2022/07/13 00:56:54;;;;;;;0.00;0.00;;;;;;;17.83;84.36;100965.50;5073073;28;20170;-73
2022/07/13 00:59:20;;;;;;;0.20;0.20;;;;;;;17.77;84.01;100970.44;5072764;28;20526;-73
2022/07/13 01:01:45;;;;;;;0.00;0.00;;;;;;;17.74;84.25;100960.06;5073108;28;20224;-73
2022/07/13 01:04:11;;;;;;;0.00;0.00;;;;;;;17.78;83.97;100952.69;5073097;28;20171;-73
2022/07/13 01:06:37;;;;;;;0.00;0.00;;;;;;;17.78;84.47;100947.16;5072688;28;20606;-74
2022/07/13 01:09:03;;;;;;;0.00;0.00;;;;;;;17.84;84.92;100931.16;5072601;28;20288;-73
2022/07/13 01:11:29;;;;;;;0.00;0.00;;;;;;;17.83;84.80;100921.25;5072904;28;20175;-73
2022/07/13 01:13:55;;;;;;;0.00;0.00;;;;;;;17.69;84.14;100923.59;5072789;28;20174;-73
2022/07/13 01:16:22;;;;;;;0.00;0.00;;;;;;;17.84;84.27;100920.09;5073126;28;20273;-75
2022/07/13 01:18:49;;;;;;;0.00;0.00;;;;;;;17.99;83.54;100926.88;5072300;28;20191;-74
2022/07/13 01:21:15;;;;;;;0.00;0.00;;;;;;;18.02;82.90;100929.72;5072741;28;20307;-74
2022/07/13 01:23:40;;;;;;;0.20;0.20;;;;;;;18.13;82.96;100916.22;5072635;28;20258;-73
2022/07/13 01:26:07;;;;;;;0.00;0.00;;;;;;;18.19;83.53;100917.56;5072552;28;20171;-74
2022/07/13 01:28:32;;;;;;;0.00;0.00;;;;;;;18.14;83.14;100913.09;5072236;28;20224;-73
2022/07/13 01:30:58;;;;;;;0.00;0.00;;;;;;;18.11;83.53;100915.78;5072531;28;20187;-72
2022/07/13 01:33:23;;;;;;;0.17;0.17;;;;;;;18.03;83.45;100909.22;5072418;28;20316;-74
2022/07/13 01:35:49;;;;;;;0.00;0.00;;;;;;;17.98;83.19;100909.47;5072391;28;20175;-74
2022/07/13 01:38:14;;;;;;;0.13;0.13;;;;;;;17.98;83.87;100905.91;5071970;28;20175;-74
2022/07/13 01:40:41;;;;;;;0.00;0.00;;;;;;;17.94;84.64;100897.50;5072427;28;20227;-73
2022/07/13 01:43:07;;;;;;;0.00;0.00;;;;;;;17.80;85.07;100908.94;5072330;28;20198;-74
2022/07/13 01:45:32;;;;;;;0.00;0.00;;;;;;;17.73;84.26;100922.53;5072272;28;20257;-73
2022/07/13 01:47:58;;;;;;;0.00;0.00;;;;;;;17.67;83.87;100914.81;5071611;28;20198;-74
2022/07/13 01:50:25;;;;;;;0.00;0.00;;;;;;;17.86;84.42;100919.75;5071587;28;20186;-73
2022/07/13 01:52:51;;;;;;;0.00;0.00;;;;;;;17.93;84.14;100914.44;5071991;28;20167;-74
2022/07/13 01:55:17;;;;;;;0.00;0.00;;;;;;;18.02;84.31;100909.56;5072127;28;20170;-74
2022/07/13 01:57:43;;;;;;;0.10;0.10;;;;;;;17.99;83.69;100899.22;5071704;28;20177;-73
2022/07/13 02:00:19;;;;;;;0.00;0.00;;;;;;;17.97;84.14;100902.34;5070441;28;20186;-73
2022/07/13 02:02:46;;;;;;;0.00;0.00;;;;;;;17.93;84.30;100906.13;5071711;28;20174;-74
2022/07/13 02:05:12;;;;;;;0.00;0.00;;;;;;;17.88;84.32;100912.72;5071872;28;20178;-73
2022/07/13 02:07:38;;;;;;;0.00;0.00;;;;;;;17.78;84.88;100908.47;5071356;28;20271;-72
2022/07/13 02:10:05;;;;;;;0.00;0.00;;;;;;;17.80;85.91;100908.94;5071749;28;20487;-73
2022/07/13 02:12:31;;;;;;;0.00;0.00;;;;;;;17.74;85.89;100915.03;5071562;28;20630;-73
2022/07/13 02:14:56;;;;;;;0.00;0.00;;;;;;;17.58;86.41;100911.34;5071650;28;20185;-73
2022/07/13 02:17:21;;;;;;;0.00;0.00;;;;;;;17.40;87.63;100913.56;5071295;28;20178;-73
2022/07/13 02:19:47;;;;;;;0.00;0.00;;;;;;;17.33;87.97;100911.38;5071298;28;20170;-74
2022/07/13 02:22:12;;;;;;;0.00;0.00;;;;;;;17.33;87.50;100916.09;5071391;28;20181;-74
2022/07/13 02:24:37;;;;;;;0.00;0.00;;;;;;;17.39;87.17;100911.97;5071716;28;20178;-73
2022/07/13 02:27:02;;;;;;;0.00;0.00;;;;;;;17.52;87.39;100916.31;5071232;28;20630;-74
2022/07/13 02:29:28;;;;;;;0.00;0.00;;;;;;;17.65;86.98;100909.63;5070962;28;20182;-73
2022/07/13 02:31:53;;;;;;;0.00;0.00;;;;;;;17.61;86.16;100900.41;5071734;28;20182;-74
2022/07/13 02:34:19;;;;;;;0.10;0.10;;;;;;;17.70;86.15;100903.09;5071310;28;20709;-73
2022/07/13 02:36:44;;;;;;;0.00;0.00;;;;;;;17.83;85.61;100904.69;5071588;28;20187;-73
2022/07/13 02:39:09;;;;;;;0.00;0.00;;;;;;;17.76;85.22;100902.47;5070996;28;20174;-73
2022/07/13 02:41:35;;;;;;;0.00;0.00;;;;;;;17.74;85.61;100906.75;5071221;28;20232;-73
2022/07/13 02:44:00;;;;;;;0.00;0.00;;;;;;;17.78;85.74;100888.31;5071091;28;20217;-73
2022/07/13 02:46:25;;;;;;;0.00;0.00;;;;;;;17.78;85.74;100897.41;5071337;28;20554;-73
2022/07/13 02:48:51;;;;;;;0.00;0.00;;;;;;;17.66;85.40;100889.13;5070549;28;20289;-74
2022/07/13 02:51:16;;;;;;;0.00;0.00;;;;;;;17.66;85.36;100883.59;5070908;28;20194;-74
2022/07/13 02:53:41;;;;;;;0.00;0.00;;;;;;;17.75;85.77;100887.06;5071240;28;20228;-73
2022/07/13 02:56:07;;;;;;;0.00;0.00;;;;;;;17.83;84.99;100891.66;5070988;28;20174;-74
2022/07/13 02:58:33;;;;;;;0.07;0.07;;;;;;;17.92;82.62;100880.44;5070574;28;20186;-73
2022/07/13 03:00:58;;;;;;;0.10;0.10;;;;;;;17.97;82.83;100880.22;5070468;28;20178;-73
2022/07/13 03:03:24;;;;;;;0.03;0.00;;;;;;;18.19;79.36;100880.81;5070446;28;20192;-74
2022/07/13 03:05:49;;;;;;;0.93;0.80;;;;;;;18.51;76.85;100881.69;5070743;28;20174;-73
2022/07/13 03:08:15;;;;;;;0.03;0.03;;;;;;;18.75;74.98;100883.56;5070210;28;20206;-73
2022/07/13 03:10:40;;;;;;;0.00;0.00;;;;;;;18.93;74.42;100891.16;5070832;28;20209;-74
2022/07/13 03:13:06;;;;;;;0.40;0.10;;;;;;;18.99;73.62;100883.41;5070122;28;20171;-73
2022/07/13 03:15:32;;;;;;;0.00;0.00;;;;;;;19.10;72.85;100884.47;5073214;28;20217;-74
2022/07/13 03:17:57;;;;;;;0.37;0.37;;;;;;;19.21;72.00;100888.28;5071257;28;20205;-74
2022/07/13 03:20:23;;;;;;;0.20;0.20;;;;;;;19.20;73.21;100894.19;5070680;28;20181;-74
2022/07/13 03:22:49;;;;;;;0.07;0.03;;;;;;;19.09;74.67;100893.13;5070747;28;20190;-73
2022/07/13 03:25:15;;;;;;;0.33;0.27;;;;;;;18.92;76.66;100885.97;5069658;28;20182;-74
2022/07/13 03:27:41;;;;;;;0.00;0.00;;;;;;;18.75;78.32;100878.81;5070556;28;20190;-74
2022/07/13 03:30:07;;;;;;;0.00;0.00;;;;;;;18.59;79.62;100883.50;5070955;28;20531;-74
2022/07/13 03:32:33;;;;;;;0.00;0.00;;;;;;;18.44;81.14;100869.28;5070517;28;20259;-73
2022/07/13 03:34:58;;;;;;;0.00;0.00;;;;;;;18.41;79.97;100871.97;5070549;28;20255;-73
2022/07/13 03:37:23;;;;;;;0.10;0.10;;;;;;;18.38;80.24;100867.94;5070349;28;20574;-74
2022/07/13 03:39:49;;;;;;;0.00;0.00;;;;;;;18.67;75.94;100871.50;5070302;28;20181;-73
2022/07/13 03:42:14;;;;;;;0.40;0.40;;;;;;;18.88;75.14;100868.47;5070755;28;20181;-73
2022/07/13 03:44:39;;;;;;;2.47;0.30;;;;;;;19.03;73.86;100865.69;5070448;28;20245;-73
2022/07/13 03:47:05;;;;;;;0.10;0.10;;;;;;;19.13;73.93;100864.38;5070486;28;20257;-74
2022/07/13 03:49:30;;;;;;;0.00;0.00;;;;;;;19.13;74.61;100866.31;5070440;28;20182;-73
2022/07/13 03:51:56;;;;;;;0.20;0.20;;;;;;;19.13;74.67;100855.25;5070509;28;20181;-74
2022/07/13 03:54:21;;;;;;;0.00;0.00;;;;;;;19.11;73.80;100861.16;5070367;28;20171;-74
2022/07/13 03:56:47;;;;;;;0.00;0.00;;;;;;;19.23;72.01;100852.72;5068823;28;20292;-74
2022/07/13 03:59:13;;;;;;;0.10;0.10;;;;;;;19.41;70.68;100855.91;5069997;28;20232;-74
2022/07/13 04:01:38;;;;;;;0.03;0.03;;;;;;;19.58;70.02;100852.75;5070277;28;20226;-74
2022/07/13 04:04:05;;;;;;;0.20;0.20;;;;;;;19.58;70.14;100847.22;5070168;28;20185;-73
2022/07/13 04:06:30;;;;;;;0.10;0.10;;;;;;;19.71;69.25;100841.56;5069065;28;20807;-73
2022/07/13 04:08:56;;;;;;;0.10;0.10;;;;;;;19.73;69.30;100840.03;5069839;28;20251;-72
2022/07/13 04:11:21;;;;;;;0.57;0.57;;;;;;;19.77;69.15;100843.66;5070098;28;20175;-74
2022/07/13 04:13:47;;;;;;;0.10;0.10;;;;;;;19.92;67.83;100842.00;5072381;28;20258;-74
2022/07/13 04:16:12;;;;;;;0.40;0.30;;;;;;;19.98;67.99;100842.50;5073897;28;20172;-73
2022/07/13 04:18:38;;;;;;;0.00;0.00;;;;;;;20.07;67.02;100838.34;5073448;28;20647;-73
2022/07/13 04:21:03;;;;;;;0.10;0.00;;;;;;;20.18;66.49;100830.22;5073758;28;20327;-74
2022/07/13 04:23:30;;;;;;;0.00;0.00;;;;;;;20.23;66.92;100829.91;5072456;28;20709;-74
2022/07/13 04:25:56;;;;;;;0.00;0.00;;;;;;;20.25;66.74;100818.44;5072541;28;20751;-73
2022/07/13 04:28:21;;;;;;;0.00;0.00;;;;;;;20.29;66.62;100822.09;5073147;28;20211;-74
2022/07/13 04:30:47;;;;;;;0.00;0.00;;;;;;;20.34;67.28;100819.81;5073624;28;20223;-74
2022/07/13 04:33:12;;;;;;;0.00;0.00;;;;;;;20.38;66.33;100817.09;5073932;28;20184;-73
2022/07/13 04:35:37;;;;;;;0.00;0.00;;;;;;;20.39;66.54;100805.63;5073807;28;20197;-73
2022/07/13 04:38:03;;;;;;;0.00;0.00;;;;;;;20.37;67.51;100818.28;5073235;28;20540;-74
2022/07/13 04:40:28;;;;;;;0.00;0.00;;;;;;;20.31;67.33;100819.78;5073489;28;20643;-74
2022/07/13 04:42:54;;;;;;;0.10;0.10;;;;;;;20.26;67.43;100820.88;5073328;28;20176;-73
2022/07/13 04:45:19;;;;;;;0.00;0.00;;;;;;;20.26;67.46;100836.72;5073282;28;20175;-73
2022/07/13 04:47:45;;;;;;;0.73;0.73;;;;;;;20.20;69.55;100831.47;5072903;28;20225;-74
2022/07/13 04:50:11;;;;;;;0.30;0.30;;;;;;;20.12;69.63;100826.97;5072888;28;20261;-73
2022/07/13 04:52:36;;;;;;;0.20;0.20;;;;;;;20.09;68.48;100819.34;5073253;28;20168;-74
2022/07/13 04:55:02;;;;;;;0.10;0.10;;;;;;;20.13;68.65;100822.22;5073192;28;20216;-73
2022/07/13 04:57:27;;;;;;;0.13;0.10;;;;;;;20.11;69.85;100822.59;5072943;28;20174;-73
2022/07/13 04:59:53;;;;;;;0.30;0.30;;;;;;;20.13;68.03;100819.44;5072783;28;20166;-73
2022/07/13 05:02:19;;;;;;;0.00;0.00;;;;;;;20.36;66.49;100823.03;5073030;28;20572;-73
2022/07/13 05:04:44;;;;;;;0.37;0.37;;;;;;;20.46;66.29;100824.44;5073010;28;20206;-74
2022/07/13 05:07:09;;;;;;;0.20;0.20;;;;;;;20.63;65.41;100829.50;5072566;28;20261;-72
2022/07/13 05:09:35;;;;;;;0.20;0.20;;;;;;;20.69;65.21;100824.47;5072768;28;20177;-73
2022/07/13 05:12:00;;;;;;;0.27;0.20;;;;;;;20.70;65.58;100832.41;5071538;28;20793;-73
2022/07/13 05:14:25;;;;;;;0.30;0.30;;;;;;;20.72;65.39;100818.16;5073155;28;20216;-73
2022/07/13 05:16:51;;;;;;;0.00;0.00;;;;;;;20.77;65.36;100817.84;5072803;28;20262;-73
2022/07/13 05:19:16;;;;;;;0.20;0.20;;;;;;;20.77;65.06;100817.84;5072482;28;20282;-73
2022/07/13 05:21:42;;;;;;;0.00;0.00;;;;;;;20.83;64.88;100798.88;5072627;28;20217;-74
2022/07/13 05:24:07;;;;;;;0.13;0.13;;;;;;;20.83;65.66;100799.69;5072308;28;20168;-73
2022/07/13 05:26:33;;;;;;;0.07;0.07;;;;;;;20.78;65.56;100786.91;5071936;28;20172;-73
2022/07/13 05:28:58;;;;;;;0.40;0.40;;;;;;;20.75;65.65;100786.84;5072251;28;20215;-72
2022/07/13 05:31:23;;;;;;;0.30;0.30;;;;;;;20.72;65.53;100782.84;5072386;28;20181;-73
2022/07/13 05:33:48;;;;;;;0.43;0.43;;;;;;;20.70;65.64;100793.53;5072436;28;20502;-73
2022/07/13 05:36:14;;;;;;;0.00;0.00;;;;;;;20.70;65.33;100790.75;5072434;28;20177;-73
2022/07/13 05:38:39;;;;;;;0.10;0.10;;;;;;;20.74;65.67;100788.03;5071790;28;20183;-73
2022/07/13 05:41:04;;;;;;;0.67;0.67;;;;;;;20.77;65.40;100793.63;5070988;28;20257;-73
2022/07/13 05:43:30;;;;;;;0.00;0.00;;;;;;;20.81;65.03;100793.69;5072147;28;20182;-72
2022/07/13 05:45:56;;;;;;;0.20;0.20;;;;;;;20.86;64.34;100795.38;5072050;28;20213;-72
2022/07/13 05:48:21;;;;;;;0.13;0.13;;;;;;;20.90;64.46;100785.91;5071596;28;20213;-73
2022/07/13 05:50:47;;;;;;;0.43;0.40;;;;;;;20.94;64.06;100791.50;5071897;28;20182;-72
2022/07/13 05:53:13;;;;;;;0.60;0.60;;;;;;;20.98;64.07;100781.28;5072035;28;20207;-73
2022/07/13 05:55:38;;;;;;;0.00;0.00;;;;;;;21.02;63.92;100782.94;5071915;28;20258;-72
2022/07/13 05:58:04;;;;;;;0.30;0.30;;;;;;;21.14;64.01;100786.69;5071435;28;20269;-73
2022/07/13 06:00:29;;;;;;;16.57;1.17;;;;;;;21.28;63.25;100775.78;5070426;28;20226;-74
2022/07/13 06:02:54;;;;;;;0.60;0.60;;;;;;;21.46;62.98;100787.16;5072104;28;20519;-72
2022/07/13 06:05:20;;;;;;;0.40;0.40;;;;;;;21.61;62.51;100780.59;5071678;28;20177;-71
2022/07/13 06:07:45;;;;;;;0.00;0.00;;;;;;;21.67;61.57;100788.22;5071719;28;20237;-72
2022/07/13 06:10:11;;;;;;;0.47;0.47;;;;;;;21.73;61.47;100791.47;5071336;28;20171;-72
2022/07/13 06:12:36;;;;;;;0.30;0.30;;;;;;;21.76;61.47;100785.16;5072089;28;20631;-72
2022/07/13 06:15:02;;;;;;;0.07;0.07;;;;;;;21.80;61.77;100788.75;5071436;28;20176;-73
2022/07/13 06:17:27;;;;;;;0.47;0.47;;;;;;;21.86;62.71;100780.91;5071334;28;20175;-73
2022/07/13 06:19:53;;;;;;;0.20;0.20;;;;;;;21.94;61.38;100783.38;5071248;28;20182;-73
2022/07/13 06:22:18;;;;;;;0.30;0.30;;;;;;;21.95;61.07;100779.41;5071229;28;20269;-72
2022/07/13 06:24:44;;;;;;;0.30;0.30;;;;;;;22.00;60.50;100780.25;5070899;28;20522;-72
2022/07/13 06:27:10;;;;;;;0.13;0.07;;;;;;;22.02;61.13;100784.25;5070610;28;20541;-72
2022/07/13 06:29:35;;;;;;;0.40;0.40;;;;;;;22.00;60.67;100775.50;5070370;28;20208;-72
2022/07/13 06:32:00;;;;;;;7.03;0.90;;;;;;;21.98;60.67;100778.63;5068443;28;20710;-72
2022/07/13 06:34:26;;;;;;;1.17;0.50;;;;;;;21.97;60.46;100774.25;5070329;28;20185;-72
2022/07/13 06:36:51;;;;;;;0.40;0.40;;;;;;;22.02;61.17;100775.91;5070128;28;20195;-72
2022/07/13 06:39:17;;;;;;;0.57;0.57;;;;;;;22.03;60.57;100779.50;5067529;28;20546;-73
2022/07/13 06:41:42;;;;;;;0.20;0.20;;;;;;;22.04;60.00;100765.19;5068513;28;20183;-73
2022/07/13 06:44:08;;;;;;;0.37;0.37;;;;;;;22.09;60.93;100772.41;5070811;28;20558;-72
2022/07/13 06:46:34;;;;;;;0.43;0.43;;;;;;;22.10;60.74;100762.88;5070941;28;20167;-74
2022/07/13 06:48:59;;;;;;;0.30;0.30;;;;;;;22.12;60.31;100761.31;5070612;28;20252;-72
2022/07/13 06:51:24;;;;;;;0.60;0.60;;;;;;;22.14;60.29;100764.56;5070995;28;20242;-72
2022/07/13 06:53:50;;;;;;;0.30;0.30;;;;;;;22.17;60.46;100751.84;5070999;28;20579;-72
2022/07/13 06:56:15;;;;;;;0.00;0.00;;;;;;;22.21;61.46;100753.47;5071071;28;20262;-73
2022/07/13 06:58:40;;;;;;;0.30;0.30;;;;;;;22.26;61.66;100749.53;5069750;28;20711;-73
2022/07/13 07:01:06;;;;;;;0.67;0.50;;;;;;;22.32;61.41;100748.00;5070860;28;20206;-72
2022/07/13 07:03:31;;;;;;;0.60;0.53;;;;;;;22.45;60.83;100756.88;5070925;28;20653;-73
2022/07/13 07:05:58;;;;;;;0.27;0.27;;;;;;;22.55;59.88;100756.94;5071151;28;20563;-76
2022/07/13 07:08:23;;;;;;;0.67;0.67;;;;;;;22.64;59.67;100755.84;5070515;28;20213;-73
2022/07/13 07:10:49;;;;;;;0.40;0.33;;;;;;;22.80;60.21;100748.78;5070815;28;20206;-73
2022/07/13 07:13:14;;;;;;;0.23;0.23;;;;;;;22.90;58.72;100758.47;5070800;28;20534;-72
2022/07/13 07:15:39;;;;;;;0.43;0.43;;;;;;;22.91;57.98;100757.28;5070695;28;20207;-73
2022/07/13 07:18:05;;;;;;;0.47;0.47;;;;;;;22.94;58.28;100747.31;5068826;28;20181;-72
2022/07/13 07:20:31;;;;;;;1.13;1.13;;;;;;;22.95;58.64;100746.94;5067048;28;20539;-73
2022/07/13 07:22:56;;;;;;;0.20;0.20;;;;;;;22.99;58.65;100735.81;5069308;28;20184;-73
2022/07/13 07:25:22;;;;;;;0.20;0.20;;;;;;;23.02;57.83;100738.63;5070927;28;20179;-72
2022/07/13 07:27:48;;;;;;;0.33;0.33;;;;;;;23.04;57.82;100741.03;5070182;28;20207;-73
2022/07/13 07:30:13;;;;;;;0.63;0.63;;;;;;;23.09;58.87;100747.03;5070260;28;20278;-73
2022/07/13 07:32:39;;;;;;;0.30;0.20;;;;;;;23.11;58.70;100732.69;5070547;28;20273;-72
2022/07/13 07:35:06;;;;;;;0.53;0.53;;;;;;;23.16;59.47;100737.91;5069366;28;20206;-72
2022/07/13 07:37:32;;;;;;;0.93;0.77;;;;;;;23.14;56.89;100743.06;5070603;28;20594;-72
2022/07/13 07:39:57;;;;;;;0.70;0.60;;;;;;;23.21;58.29;100736.75;5070260;28;20169;-72
2022/07/13 07:42:23;;;;;;;0.53;0.53;;;;;;;23.22;57.73;100727.19;5070629;28;20517;-71
2022/07/13 07:44:48;;;;;;;0.33;0.33;;;;;;;23.26;57.15;100728.00;5070390;28;20598;-72
2022/07/13 07:47:15;;;;;;;0.80;0.80;;;;;;;23.36;58.45;100732.84;5070355;28;20622;-73
2022/07/13 07:49:40;;;;;;;0.20;0.10;;;;;;;23.45;57.70;100730.50;5073905;28;20200;-72
2022/07/13 07:52:06;;;;;;;0.33;0.10;;;;;;;23.59;58.00;100725.00;5074412;28;20178;-74
2022/07/13 07:54:31;;;;;;;0.10;0.10;;;;;;;23.76;57.34;100722.66;5074350;28;20171;-75
2022/07/13 07:56:57;;;;;;;0.20;0.20;;;;;;;23.88;54.65;100723.09;5073272;28;20177;-74
2022/07/13 07:59:22;;;;;;;0.40;0.27;;;;;;;23.93;54.59;100717.13;5074028;28;20201;-75
2022/07/13 08:01:47;;;;;;;0.20;0.17;;;;;;;23.88;52.28;100713.94;5074108;28;20179;-75
2022/07/13 08:04:13;;;;;;;0.10;0.10;;;;;;;24.01;54.44;100706.75;5074131;28;20167;-74
2022/07/13 08:06:38;;;;;;;0.00;0.00;;;;;;;24.20;54.26;100697.22;5074063;28;20206;-74
2022/07/13 08:09:04;;;;;;;0.03;0.03;;;;;;;24.35;54.26;100698.84;5073553;28;20677;-75
2022/07/13 08:11:29;;;;;;;0.20;0.20;;;;;;;24.41;53.40;100697.22;5073920;28;20186;-75
2022/07/13 08:13:55;;;;;;;0.23;0.17;;;;;;;24.41;53.23;100704.81;5071294;28;20190;-75
2022/07/13 08:16:20;;;;;;;3.23;1.27;;;;;;;24.50;52.34;100692.06;5073680;28;20185;-75
2022/07/13 08:18:47;;;;;;;0.00;0.00;;;;;;;24.67;52.80;100700.81;5073088;28;20199;-75
2022/07/13 08:21:12;;;;;;;0.43;0.43;;;;;;;24.73;51.27;100697.19;5073923;28;20180;-74
2022/07/13 08:23:56;;;;;;;0.20;0.20;;;;;;;24.81;50.80;100698.78;5073536;28;20178;-74
2022/07/13 08:26:24;;;;;;;0.53;0.40;;;;;;;24.84;51.01;100697.97;5072393;28;20175;-75
2022/07/13 08:28:51;;;;;;;0.00;0.00;;;;;;;24.88;49.64;100697.97;5073029;28;20209;-74
2022/07/13 08:31:20;;;;;;;0.20;0.20;;;;;;;24.99;49.84;100697.94;5073512;28;20282;-74
2022/07/13 08:39:17;;;;;;;0.20;0.20;;;;;;;25.29;48.22;100689.88;5073137;28;20194;-74
2022/07/13 08:41:42;;;;;;;0.00;0.00;;;;;;;25.31;48.62;100686.69;5073325;28;20166;-74
2022/07/13 08:44:07;;;;;;;0.10;0.10;;;;;;;25.28;48.28;100693.88;5073270;28;20306;-74
2022/07/13 08:46:33;;;;;;;9.03;0.60;;;;;;;25.30;48.71;100691.47;5073036;28;20170;-75
2022/07/13 08:49:00;;;;;;;0.60;0.60;;;;;;;25.27;47.84;100691.50;5072601;28;20198;-75
2022/07/13 08:51:26;;;;;;;0.47;0.30;;;;;;;25.38;48.86;100686.66;5073097;28;20189;-75
2022/07/13 08:53:53;;;;;;;0.40;0.40;;;;;;;25.37;47.94;100685.88;5073153;28;20167;-74
2022/07/13 08:56:19;;;;;;;1.90;1.27;;;;;;;25.31;47.40;100678.28;5073099;28;20217;-75
2022/07/13 08:58:44;;;;;;;0.13;0.13;;;;;;;25.33;48.48;100687.09;5071931;28;20171;-75
2022/07/13 09:01:11;;;;;;;0.07;0.00;;;;;;;25.44;48.12;100679.44;5072017;28;20170;-74
2022/07/13 09:03:37;;;;;;;0.17;0.10;;;;;;;25.42;47.72;100684.63;5073029;28;20224;-75
2022/07/13 09:06:04;;;;;;;0.40;0.40;;;;;;;25.36;48.31;100678.69;5072960;28;20170;-75
2022/07/13 09:08:29;;;;;;;0.30;0.30;;;;;;;25.40;48.64;100685.03;5072531;28;20296;-75
2022/07/13 09:11:01;;;;;;;0.70;0.50;;;;;;;25.33;48.17;100689.91;5072911;28;20250;-74
2022/07/13 09:13:47;;;;;;;0.03;0.00;;;;;;;25.32;48.17;100677.91;5072884;28;20171;-74
2022/07/13 09:16:16;;;;;;;0.40;0.40;;;;;;;25.33;48.37;100673.09;5070613;28;20183;-74
2022/07/13 09:18:43;;;;;;;0.00;0.00;;;;;;;25.39;48.51;100674.25;5072316;28;20190;-75
2022/07/13 09:21:09;;;;;;;0.20;0.20;;;;;;;25.44;48.00;100671.03;5072536;28;20174;-74
2022/07/13 09:23:35;;;;;;;0.70;0.63;;;;;;;25.46;48.95;100666.66;5072829;28;20584;-74
2022/07/13 09:26:00;;;;;;;0.00;0.00;;;;;;;25.45;48.47;100661.44;5072363;28;20167;-75
2022/07/13 09:28:25;;;;;;;0.23;0.23;;;;;;;25.58;48.86;100656.97;5070232;28;20224;-75
2022/07/13 09:30:51;;;;;;;0.00;0.00;;;;;;;25.67;48.25;100662.13;5072123;28;20531;-75
2022/07/13 09:33:32;;;;;;;1.80;0.60;;;;;;;25.69;48.38;100660.53;5072148;28;20168;-74
2022/07/13 09:35:58;;;;;;;0.60;0.60;;;;;;;25.69;48.24;100666.13;5072066;28;20174;-75
2022/07/13 09:38:38;;;;;;;0.40;0.40;;;;;;;25.62;47.76;100654.97;5071552;28;20181;-74
2022/07/13 09:41:19;;;;;;;0.60;0.60;;;;;;;25.75;48.26;100649.69;5071817;28;20182;-74
2022/07/13 09:46:50;;;;;;;0.00;0.00;;;;;;;25.99;49.35;100636.72;5071806;28;20272;-76
2022/07/13 09:49:16;;;;;;;0.00;0.00;;;;;;;26.33;49.02;100636.84;5071442;28;20202;-74
2022/07/13 09:51:44;;;;;;;0.40;0.40;;;;;;;26.77;47.89;100640.84;5071867;28;20175;-75
2022/07/13 09:54:11;;;;;;;0.30;0.30;;;;;;;26.91;46.49;100635.09;5071845;28;20182;-74
2022/07/13 09:56:37;;;;;;;0.50;0.50;;;;;;;26.97;46.46;100636.19;5071439;28;20218;-75
2022/07/13 09:59:04;;;;;;;9.53;0.50;;;;;;;26.69;46.59;100632.50;5071296;28;20177;-74
2022/07/13 10:01:31;;;;;;;0.53;0.53;;;;;;;26.64;46.31;100632.97;5071498;28;20250;-73
2022/07/13 10:03:58;;;;;;;0.73;0.73;;;;;;;26.68;47.81;100636.53;5071454;28;20178;-73
2022/07/13 10:06:23;;;;;;;0.70;0.43;;;;;;;26.75;46.84;100637.66;5071336;28;20179;-74
2022/07/13 10:08:53;;;;;;;0.07;0.07;;;;;;;26.86;46.31;100632.72;5070675;28;20211;-74
2022/07/13 10:11:18;;;;;;;0.30;0.30;;;;;;;26.90;48.01;100633.47;5071078;28;20368;-73
2022/07/13 10:13:45;;;;;;;0.30;0.30;;;;;;;26.85;46.60;100637.53;5071348;28;20468;-74
2022/07/13 10:16:11;;;;;;;0.30;0.30;;;;;;;26.87;45.62;100639.91;5071310;28;20170;-74
2022/07/13 10:18:39;;;;;;;0.73;0.10;;;;;;;26.87;46.04;100634.31;5070911;28;20174;-74
2022/07/13 10:21:10;;;;;;;0.60;0.60;;;;;;;26.86;45.44;100632.72;5071333;28;20261;-73
2022/07/13 10:23:38;;;;;;;0.37;0.37;;;;;;;26.78;46.01;100628.41;5071313;28;20206;-74
2022/07/13 10:26:21;;;;;;;1.03;0.77;;;;;;;26.79;45.15;100628.00;5069734;28;20175;-73
2022/07/13 10:29:09;;;;;;;0.40;0.40;;;;;;;26.82;46.12;100637.56;5070304;28;20209;-74
2022/07/13 10:31:36;;;;;;;0.53;0.53;;;;;;;26.85;45.20;100626.31;5071092;28;20179;-74
2022/07/13 10:34:03;;;;;;;0.40;0.40;;;;;;;26.87;45.50;100626.69;5071146;28;20290;-75
2022/07/13 10:36:57;;;;;;;0.80;0.50;;;;;;;26.96;45.07;100635.41;5070990;28;20214;-74
2022/07/13 10:39:27;;;;;;;1.17;0.53;;;;;;;27.02;45.31;100623.75;5070459;28;20240;-73
2022/07/13 10:42:02;;;;;;;0.30;0.30;;;;;;;26.99;46.29;100625.34;5071233;28;20187;-72
2022/07/13 10:44:38;;;;;;;0.00;0.00;;;;;;;27.14;46.20;100617.59;5071296;28;20252;-73
2022/07/13 10:47:05;;;;;;;0.93;0.90;;;;;;;27.31;45.19;100618.56;5070875;28;20176;-73
2022/07/13 10:49:30;;;;;;;1.63;0.73;;;;;;;27.32;45.83;100620.16;5070733;28;20213;-73
2022/07/13 10:51:57;;;;;;;0.33;0.20;;;;;;;27.60;45.76;100614.13;5070784;28;20554;-73
2022/07/13 10:54:23;;;;;;;0.00;0.00;;;;;;;28.00;44.51;100612.31;5070685;28;20200;-73
2022/07/13 10:57:14;;;;;;;5.93;0.60;;;;;;;28.25;43.27;100609.09;5070591;28;20613;-72
2022/07/13 10:59:45;;;;;;;0.70;0.70;;;;;;;28.47;44.43;100603.09;5070610;28;20181;-72
2022/07/13 11:02:50;;;;;;;0.53;0.33;;;;;;;28.63;43.10;100603.19;5071074;28;20524;-72
2022/07/13 11:05:20;;;;;;;0.70;0.37;;;;;;;28.60;42.79;100590.00;5070600;28;20633;-72
2022/07/13 11:07:50;;;;;;;0.60;0.60;;;;;;;28.94;42.73;100592.56;5070315;28;20194;-73
2022/07/13 11:10:33;;;;;;;0.20;0.20;;;;;;;29.07;42.54;100587.06;5070466;28;20171;-73
2022/07/13 11:13:09;;;;;;;0.50;0.50;;;;;;;29.25;41.49;100598.75;5070496;28;20183;-72
2022/07/13 11:15:47;;;;;;;0.20;0.13;;;;;;;29.39;42.16;100586.38;5070722;28;20171;-72
2022/07/13 11:18:22;;;;;;;0.40;0.40;;;;;;;29.51;40.71;100602.59;5069496;28;20180;-72
2022/07/13 11:20:59;;;;;;;0.40;0.40;;;;;;;29.35;39.74;100589.25;5070411;28;20171;-71
2022/07/13 11:26:20;;;;;;;4.23;0.73;;;;;;;29.44;40.65;100585.84;5070347;28;20626;-72
2022/07/13 11:29:09;;;;;;;0.93;0.93;;;;;;;29.33;40.53;100586.06;5069712;28;20207;-72
2022/07/13 11:31:36;;;;;;;0.37;0.30;;;;;;;29.23;40.46;100587.13;5070119;28;20173;-72
2022/07/13 11:34:01;;;;;;;0.33;0.33;;;;;;;29.02;40.15;100588.38;5070245;28;20172;-72